Las Vegas, Nevada
Traffic Map
Current Weather Conditions
Las Vegas, Nevada
Clear
Clear
39°
Feels Like: 39°
Wind Chill: 39° Ceiling: Unl
Heat Index: 39° Visibility: 10mi
Dew Point: Wind: 9mph
Humidity: 9% Direction: 170° (S)
Pressure: 29.75in Gusts: 17mph
Raw Report DataKLAS 022056Z 17008G15KT 10SM CLR 39/01 A2975 RMK AO2 SLP043 T03940006 58024
Traffic Incident Summary
Active as of:
Severity:
Category:
InformationThere was an issue retrieving the traffic information for this location. Please try a different location or try again shortly.
Advertisements
Track Severe Weather on mobile